Map

Track Data

SID SEASON NUMBER BASIN SUBBASIN NAME ISO_TIME NATURE LAT LON WMO_WIND WMO_PRES WMO_AGENCY TRACK_TYPE DIST2LAND LANDFALL IFLAG USA_AGENCY USA_ATCF_ID USA_LAT USA_LON USA_RECORD USA_STATUS USA_WIND USA_PRES USA_SSHS USA_R34_NE USA_R34_SE USA_R34_SW USA_R34_NW USA_R50_NE USA_R50_SE USA_R50_SW USA_R50_NW USA_R64_NE USA_R64_SE USA_R64_SW USA_R64_NW USA_POCI USA_ROCI USA_RMW USA_EYE TOKYO_LAT TOKYO_LON TOKYO_GRADE TOKYO_WIND TOKYO_PRES TOKYO_R50_DIR TOKYO_R50_LONG TOKYO_R50_SHORT TOKYO_R30_DIR TOKYO_R30_LONG TOKYO_R30_SHORT TOKYO_LAND CMA_LAT CMA_LON CMA_CAT CMA_WIND CMA_PRES HKO_LAT HKO_LON HKO_CAT HKO_WIND HKO_PRES NEWDELHI_LAT NEWDELHI_LON NEWDELHI_GRADE NEWDELHI_WIND NEWDELHI_PRES NEWDELHI_CI NEWDELHI_DP NEWDELHI_POCI REUNION_LAT REUNION_LON REUNION_TYPE REUNION_WIND REUNION_PRES REUNION_TNUM REUNION_CI REUNION_RMW REUNION_R34_NE REUNION_R34_SE REUNION_R34_SW REUNION_R34_NW REUNION_R50_NE REUNION_R50_SE REUNION_R50_SW REUNION_R50_NW REUNION_R64_NE REUNION_R64_SE REUNION_R64_SW REUNION_R64_NW BOM_LAT BOM_LON BOM_TYPE BOM_WIND BOM_PRES BOM_TNUM BOM_CI BOM_RMW BOM_R34_NE BOM_R34_SE BOM_R34_SW BOM_R34_NW BOM_R50_NE BOM_R50_SE BOM_R50_SW BOM_R50_NW BOM_R64_NE BOM_R64_SE BOM_R64_SW BOM_R64_NW BOM_ROCI BOM_POCI BOM_EYE BOM_POS_METHOD BOM_PRES_METHOD NADI_LAT NADI_LON NADI_CAT NADI_WIND NADI_PRES WELLINGTON_LAT WELLINGTON_LON WELLINGTON_WIND WELLINGTON_PRES DS824_LAT DS824_LON DS824_STAGE DS824_WIND DS824_PRES TD9636_LAT TD9636_LON TD9636_STAGE TD9636_WIND TD9636_PRES TD9635_LAT TD9635_LON TD9635_WIND TD9635_PRES TD9635_ROCI NEUMANN_LAT NEUMANN_LON NEUMANN_CLASS NEUMANN_WIND NEUMANN_PRES MLC_LAT MLC_LON MLC_CLASS MLC_WIND MLC_PRES USA_GUST BOM_GUST BOM_GUST_PER REUNION_GUST REUNION_GUST_PER USA_SEAHGT USA_SEARAD_NE USA_SEARAD_SE USA_SEARAD_SW USA_SEARAD_NW STORM_SPEED STORM_DIR
1925331N20274 1925 60 NA CS NOT_NAMED 1925-11-27 00:00:00 TS 20.2000 -85.9000 30 hurdat_atl main 123 123 O_____________ hurdat_atl AL041925 20.2000 -85.9000 TD 30 -1 1 137
1925331N20274 1925 60 NA CS NOT_NAMED 1925-11-27 03:00:00 TS 20.1500 -85.8500 main 132 132 P_____________ AL041925 20.1500 -85.8500 TD 30 -1 1 137
1925331N20274 1925 60 NA CS NOT_NAMED 1925-11-27 06:00:00 TS 20.1000 -85.8000 30 hurdat_atl main 138 138 O_____________ hurdat_atl AL041925 20.1000 -85.8000 TD 30 -1 1 137
1925331N20274 1925 60 NA CS NOT_NAMED 1925-11-27 09:00:00 TS 20.0500 -85.7500 main 147 153 P_____________ AL041925 20.0500 -85.7500 TD 32 -1 1 137
1925331N20274 1925 60 NA CS NOT_NAMED 1925-11-27 12:00:00 TS 20.0000 -85.7000 35 hurdat_atl main 153 153 O_____________ hurdat_atl AL041925 20.0000 -85.7000 TS 35 0 1 140
1925331N20274 1925 60 NA CS NOT_NAMED 1925-11-27 15:00:00 TS 19.9500 -85.6575 main 160 160 P_____________ AL041925 19.9500 -85.6575 TS 35 0 1 137
1925331N20274 1925 60 NA CS NOT_NAMED 1925-11-27 18:00:00 TS 19.9000 -85.6000 35 hurdat_atl main 168 168 O_____________ hurdat_atl AL041925 19.9000 -85.6000 TS 35 0 2 125
1925331N20274 1925 60 NA CS NOT_NAMED 1925-11-27 21:00:00 TS 19.8500 -85.5075 main 177 177 P_____________ AL041925 19.8500 -85.5075 TS 35 0 2 118
1925331N20274 1925 60 NA CS NOT_NAMED 1925-11-28 00:00:00 TS 19.8000 -85.4000 35 hurdat_atl main 192 192 O_____________ hurdat_atl AL041925 19.8000 -85.4000 TS 35 0 2 116
1925331N20274 1925 60 NA CS NOT_NAMED 1925-11-28 03:00:00 TS 19.7575 -85.3000 main 200 200 P_____________ AL041925 19.7575 -85.3000 TS 35 0 2 118
1925331N20274 1925 60 NA CS NOT_NAMED 1925-11-28 06:00:00 TS 19.7000 -85.2000 35 hurdat_atl main 215 215 O_____________ hurdat_atl AL041925 19.7000 -85.2000 TS 35 0 2 130
1925331N20274 1925 60 NA CS NOT_NAMED 1925-11-28 09:00:00 TS 19.6075 -85.1075 main 230 230 P_____________ AL041925 19.6075 -85.1075 TS 35 0 3 136
1925331N20274 1925 60 NA CS NOT_NAMED 1925-11-28 12:00:00 TS 19.5000 -85.0000 35 hurdat_atl main 245 245 O_____________ hurdat_atl AL041925 19.5000 -85.0000 TS 35 0 3 133
1925331N20274 1925 60 NA CS NOT_NAMED 1925-11-28 15:00:00 TS 19.4000 -84.8725 main 261 261 P_____________ AL041925 19.4000 -84.8725 TS 35 0 3 125
1925331N20274 1925 60 NA CS NOT_NAMED 1925-11-28 18:00:00 TS 19.3000 -84.7000 35 hurdat_atl main 279 279 O_____________ hurdat_atl AL041925 19.3000 -84.7000 TS 35 0 4 118
1925331N20274 1925 60 NA CS NOT_NAMED 1925-11-28 21:00:00 TS 19.1925 -84.4650 main 290 290 P_____________ AL041925 19.1925 -84.4650 TS 35 0 5 113
1925331N20274 1925 60 NA CS NOT_NAMED 1925-11-29 00:00:00 TS 19.1000 -84.2000 35 hurdat_atl main 295 286 O_____________ hurdat_atl AL041925 19.1000 -84.2000 TS 35 0 5 107
1925331N20274 1925 60 NA CS NOT_NAMED 1925-11-29 03:00:00 TS 19.0350 -83.9275 main 291 284 P_____________ AL041925 19.0350 -83.9275 TS 35 0 5 102
1925331N20274 1925 60 NA CS NOT_NAMED 1925-11-29 06:00:00 TS 19.0000 -83.7000 35 hurdat_atl main 284 281 O_____________ hurdat_atl AL041925 19.0000 -83.7000 TS 35 0 4 100
1925331N20274 1925 60 NA CS NOT_NAMED 1925-11-29 09:00:00 TS 18.9699 -83.5475 main 278 278 P_____________ AL041925 18.9699 -83.5475 TS 35 0 2 90
1925331N20274 1925 60 NA CS NOT_NAMED 1925-11-29 12:00:00 TS 19.0000 -83.5000 35 hurdat_atl main 278 267 O_____________ hurdat_atl AL041925 19.0000 -83.5000 TS 35 0 1 350
1925331N20274 1925 60 NA CS NOT_NAMED 1925-11-29 15:00:00 TS 19.1050 -83.5551 main 270 252 P_____________ AL041925 19.1050 -83.5551 TS 35 0 4 328
1925331N20274 1925 60 NA CS NOT_NAMED 1925-11-29 18:00:00 TS 19.3000 -83.7000 35 hurdat_atl main 252 236 O_____________ hurdat_atl AL041925 19.3000 -83.7000 TS 35 0 5 326
1925331N20274 1925 60 NA CS NOT_NAMED 1925-11-29 21:00:00 TS 19.5550 -83.8776 main 231 212 P_____________ AL041925 19.5550 -83.8776 TS 35 0 7 328
1925331N20274 1925 60 NA CS NOT_NAMED 1925-11-30 00:00:00 TS 19.9000 -84.1000 35 hurdat_atl main 212 168 O_____________ hurdat_atl AL041925 19.9000 -84.1000 TS 35 0 9 328
1925331N20274 1925 60 NA CS NOT_NAMED 1925-11-30 03:00:00 TS 20.3051 -84.3723 main 168 112 P_____________ AL041925 20.3051 -84.3723 TS 35 0 10 333
1925331N20274 1925 60 NA CS NOT_NAMED 1925-11-30 06:00:00 TS 20.8000 -84.6000 35 hurdat_atl main 112 56 O_____________ hurdat_atl AL041925 20.8000 -84.6000 TS 35 0 11 343
1925331N20274 1925 60 NA CS NOT_NAMED 1925-11-30 09:00:00 TS 21.3474 -84.7246 main 56 0 P_____________ AL041925 21.3474 -84.7246 TS 37 0 12 355
1925331N20274 1925 60 NA GM NOT_NAMED 1925-11-30 12:00:00 TS 22.0000 -84.7000 40 hurdat_atl main 11 11 O_____________ hurdat_atl AL041925 22.0000 -84.7000 TS 40 0 14 6
1925331N20274 1925 60 NA GM NOT_NAMED 1925-11-30 15:00:00 TS 22.7396 -84.5613 main 45 45 P_____________ AL041925 22.7396 -84.5613 TS 42 0 17 16
1925331N20274 1925 60 NA GM NOT_NAMED 1925-11-30 18:00:00 TS 23.6000 -84.2000 45 hurdat_atl main 102 102 O_____________ hurdat_atl AL041925 23.6000 -84.2000 TS 45 0 21 25
1925331N20274 1925 60 NA GM NOT_NAMED 1925-11-30 21:00:00 TS 24.6341 -83.6032 main 191 114 P_____________ AL041925 24.6341 -83.6032 TS 50 0 24 32
1925331N20274 1925 60 NA GM NOT_NAMED 1925-12-01 00:00:00 TS 25.6000 -82.8000 55 hurdat_atl main 114 9 O_____________ hurdat_atl AL041925 25.6000 -82.8000 TS 55 0 23 43
1925331N20274 1925 60 NA GM NOT_NAMED 1925-12-01 03:00:00 TS 26.3000 -81.9000 55 hurdat_atl main 9 0 O_____________ hurdat_atl AL041925 26.3000 -81.9000 L TS 55 0 23 42
1925331N20274 1925 60 NA NA NOT_NAMED 1925-12-01 06:00:00 ET 27.3000 -81.1000 50 hurdat_atl main 0 0 O_____________ hurdat_atl AL041925 27.3000 -81.1000 EX 50 -4 22 35
1925331N20274 1925 60 NA NA NOT_NAMED 1925-12-01 09:00:00 ET 28.0677 -80.5099 main 9 9 P_____________ AL041925 28.0677 -80.5099 EX 55 -4 17 32
1925331N20274 1925 60 NA NA NOT_NAMED 1925-12-01 12:00:00 ET 28.7000 -80.1000 60 hurdat_atl main 44 44 O_____________ hurdat_atl AL041925 28.7000 -80.1000 EX 60 -4 15 26
1925331N20274 1925 60 NA NA NOT_NAMED 1925-12-01 15:00:00 ET 29.3796 -79.7839 main 111 111 P_____________ AL041925 29.3796 -79.7839 EX 65 -4 14 22
1925331N20274 1925 60 NA NA NOT_NAMED 1925-12-01 18:00:00 ET 30.0000 -79.5000 70 hurdat_atl main 168 168 O_____________ hurdat_atl AL041925 30.0000 -79.5000 EX 70 -4 13 27
1925331N20274 1925 60 NA NA NOT_NAMED 1925-12-01 21:00:00 ET 30.5226 -79.0998 main 220 216 P_____________ AL041925 30.5226 -79.0998 EX 75 -4 12 35
1925331N20274 1925 60 NA NA NOT_NAMED 1925-12-02 00:00:00 ET 31.0000 -78.7000 80 hurdat_atl main 216 201 O_____________ hurdat_atl AL041925 31.0000 -78.7000 EX 80 -4 11 33
1925331N20274 1925 60 NA NA NOT_NAMED 1925-12-02 03:00:00 ET 31.4773 -78.3842 main 191 165 P_____________ AL041925 31.4773 -78.3842 EX 77 -4 11 27
1925331N20274 1925 60 NA NA NOT_NAMED 1925-12-02 06:00:00 ET 32.0000 -78.1000 75 hurdat_atl main 165 144 O_____________ hurdat_atl AL041925 32.0000 -78.1000 EX 75 -4 13 23
1925331N20274 1925 60 NA NA NOT_NAMED 1925-12-02 09:00:00 ET 32.6424 -77.7999 main 146 81 P_____________ AL041925 32.6424 -77.7999 EX 72 -4 14 21
1925331N20274 1925 60 NA NA NOT_NAMED 1925-12-02 12:00:00 ET 33.3000 -77.5000 70 hurdat_atl main 81 64 O_____________ hurdat_atl AL041925 33.3000 -77.5000 EX 70 -4 13 22
1925331N20274 1925 60 NA NA NOT_NAMED 1925-12-02 15:00:00 ET 33.8649 -77.2068 main 64 33 P_____________ AL041925 33.8649 -77.2068 EX 67 -4 12 24
1925331N20274 1925 60 NA NA NOT_NAMED 1925-12-02 18:00:00 ET 34.4000 -76.9000 65 980 hurdat_atl main 33 0 O_____________ hurdat_atl AL041925 34.4000 -76.9000 EX 65 980 -4 12 26
1925331N20274 1925 60 NA NA NOT_NAMED 1925-12-02 21:00:00 ET 34.9574 -76.5646 main 9 0 P_____________ AL041925 34.9574 -76.5646 EX 62 -4 12 28
1925331N20274 1925 60 NA NA NOT_NAMED 1925-12-03 00:00:00 ET 35.5000 -76.2000 60 hurdat_atl main 0 0 O_____________ hurdat_atl AL041925 35.5000 -76.2000 EX 60 -4 12 30
1925331N20274 1925 60 NA NA NOT_NAMED 1925-12-03 03:00:00 ET 36.0299 -75.8148 main 8 0 P_____________ AL041925 36.0299 -75.8148 EX 60 -4 12 33
1925331N20274 1925 60 NA NA NOT_NAMED 1925-12-03 06:00:00 ET 36.5000 -75.4000 60 hurdat_atl main 37 37 O_____________ hurdat_atl AL041925 36.5000 -75.4000 EX 60 -4 11 39
1925331N20274 1925 60 NA NA NOT_NAMED 1925-12-03 09:00:00 ET 36.8873 -74.9645 main 82 82 P_____________ AL041925 36.8873 -74.9645 EX 57 -4 10 46
1925331N20274 1925 60 NA NA NOT_NAMED 1925-12-03 12:00:00 ET 37.2000 -74.5000 55 hurdat_atl main 110 110 O_____________ hurdat_atl AL041925 37.2000 -74.5000 EX 55 -4 10 52
1925331N20274 1925 60 NA NA NOT_NAMED 1925-12-03 15:00:00 ET 37.4873 -74.0149 main 130 130 P_____________ AL041925 37.4873 -74.0149 EX 55 -4 9 58
1925331N20274 1925 60 NA NA NOT_NAMED 1925-12-03 18:00:00 ET 37.7000 -73.5000 55 hurdat_atl main 154 154 O_____________ hurdat_atl AL041925 37.7000 -73.5000 EX 55 -4 9 67
1925331N20274 1925 60 NA NA NOT_NAMED 1925-12-03 21:00:00 ET 37.8447 -72.9649 main 191 191 P_____________ AL041925 37.8447 -72.9649 EX 52 -4 9 77
1925331N20274 1925 60 NA NA NOT_NAMED 1925-12-04 00:00:00 ET 37.9000 -72.4000 50 hurdat_atl main 239 239 O_____________ hurdat_atl AL041925 37.9000 -72.4000 EX 50 -4 9 88
1925331N20274 1925 60 NA NA NOT_NAMED 1925-12-04 03:00:00 ET 37.8798 -71.8072 main 280 280 P_____________ AL041925 37.8798 -71.8072 EX 50 -4 10 96
1925331N20274 1925 60 NA NA NOT_NAMED 1925-12-04 06:00:00 ET 37.8000 -71.2000 50 hurdat_atl main 328 328 O_____________ hurdat_atl AL041925 37.8000 -71.2000 EX 50 -4 10 99
1925331N20274 1925 60 NA NA NOT_NAMED 1925-12-04 09:00:00 ET 37.7224 -70.5852 main 378 378 P_____________ AL041925 37.7224 -70.5852 EX 47 -4 10 102
1925331N20274 1925 60 NA NA NOT_NAMED 1925-12-04 12:00:00 ET 37.6000 -70.0000 45 hurdat_atl main 420 420 O_____________ hurdat_atl AL041925 37.6000 -70.0000 EX 45 -4 9 109
1925331N20274 1925 60 NA NA NOT_NAMED 1925-12-04 15:00:00 ET 37.4148 -69.4699 main 462 462 P_____________ AL041925 37.4148 -69.4699 EX 45 -4 9 117
1925331N20274 1925 60 NA NA NOT_NAMED 1925-12-04 18:00:00 ET 37.2000 -69.0000 45 hurdat_atl main 500 500 O_____________ hurdat_atl AL041925 37.2000 -69.0000 EX 45 -4 8 120
1925331N20274 1925 60 NA NA NOT_NAMED 1925-12-04 21:00:00 ET 36.9999 -68.5627 main 532 532 P_____________ AL041925 36.9999 -68.5627 EX 42 -4 8 122
1925331N20274 1925 60 NA NA NOT_NAMED 1925-12-05 00:00:00 ET 36.8000 -68.2000 40 hurdat_atl main 565 565 O_____________ hurdat_atl AL041925 36.8000 -68.2000 EX 40 -4 7 127
1925331N20274 1925 60 NA NA NOT_NAMED 1925-12-05 03:00:00 ET 36.5999 -67.9051 main 595 595 P_____________ AL041925 36.5999 -67.9051 EX 37 -4 6 135
1925331N20274 1925 60 NA NA NOT_NAMED 1925-12-05 06:00:00 ET 36.4000 -67.7000 35 hurdat_atl main 622 622 O_____________ hurdat_atl AL041925 36.4000 -67.7000 EX 35 -4 5 147
1925331N20274 1925 60 NA NA NOT_NAMED 1925-12-05 09:00:00 ET 36.2000 -67.5775 main 646 646 P_____________ AL041925 36.2000 -67.5775 EX 32 -4 4 158
1925331N20274 1925 60 NA NA NOT_NAMED 1925-12-05 12:00:00 ET 36.0000 -67.5000 30 hurdat_atl main 670 O_____________ hurdat_atl AL041925 36.0000 -67.5000 EX 30 -4 4 160

About IBTrACS Database

This database is a web-friendly format of International Best Track Archive for Climate Stewardship (IBTrACS), a global best track data archive curated by NOAA dating back to 1842.

Updated: 2021-12-06